sensor_id;sensor_type;location;lat;lon;timestamp;P1;durP1;ratioP1;P2;durP2;ratioP2
25509;SDS011;13413;52.336;21.200;2022-09-09T00:00:22;13.70;;;7.20;;
25509;SDS011;13413;52.336;21.200;2022-09-09T00:03:44;10.50;;;6.70;;
25509;SDS011;13413;52.336;21.200;2022-09-09T00:07:15;11.40;;;7.20;;
25509;SDS011;13413;52.336;21.200;2022-09-09T00:10:39;10.10;;;6.50;;
25509;SDS011;13413;52.336;21.200;2022-09-09T00:14:01;14.70;;;8.20;;
25509;SDS011;13413;52.336;21.200;2022-09-09T00:17:30;17.20;;;7.70;;
25509;SDS011;13413;52.336;21.200;2022-09-09T00:20:55;11.90;;;7.20;;
25509;SDS011;13413;52.336;21.200;2022-09-09T00:24:22;18.50;;;8.00;;
25509;SDS011;13413;52.336;21.200;2022-09-09T00:27:46;16.20;;;7.70;;
25509;SDS011;13413;52.336;21.200;2022-09-09T00:31:11;12.80;;;7.40;;
25509;SDS011;13413;52.336;21.200;2022-09-09T00:34:33;16.70;;;8.30;;
25509;SDS011;13413;52.336;21.200;2022-09-09T00:37:54;12.90;;;7.90;;
25509;SDS011;13413;52.336;21.200;2022-09-09T00:41:21;14.30;;;8.30;;
25509;SDS011;13413;52.336;21.200;2022-09-09T00:44:58;10.80;;;7.40;;
25509;SDS011;13413;52.336;21.200;2022-09-09T00:52:06;14.80;;;8.40;;
25509;SDS011;13413;52.336;21.200;2022-09-09T00:55:38;11.20;;;7.80;;
25509;SDS011;13413;52.336;21.200;2022-09-09T00:59:05;14.40;;;8.40;;
25509;SDS011;13413;52.336;21.200;2022-09-09T01:02:36;14.20;;;8.10;;
25509;SDS011;13413;52.336;21.200;2022-09-09T01:06:13;13.80;;;7.90;;
25509;SDS011;13413;52.336;21.200;2022-09-09T01:09:41;13.50;;;8.70;;
25509;SDS011;13413;52.336;21.200;2022-09-09T01:13:11;14.40;;;8.40;;
25509;SDS011;13413;52.336;21.200;2022-09-09T01:16:37;13.30;;;8.50;;
25509;SDS011;13413;52.336;21.200;2022-09-09T01:20:02;11.10;;;8.80;;
25509;SDS011;13413;52.336;21.200;2022-09-09T01:23:29;13.70;;;8.60;;
25509;SDS011;13413;52.336;21.200;2022-09-09T01:26:56;15.50;;;9.10;;
25509;SDS011;13413;52.336;21.200;2022-09-09T01:30:16;19.10;;;8.70;;
25509;SDS011;13413;52.336;21.200;2022-09-09T01:33:39;13.50;;;8.60;;
25509;SDS011;13413;52.336;21.200;2022-09-09T01:36:59;12.60;;;8.70;;
25509;SDS011;13413;52.336;21.200;2022-09-09T01:40:22;12.90;;;8.40;;
25509;SDS011;13413;52.336;21.200;2022-09-09T01:43:43;12.70;;;8.30;;
25509;SDS011;13413;52.336;21.200;2022-09-09T01:47:03;12.10;;;9.00;;
25509;SDS011;13413;52.336;21.200;2022-09-09T01:50:24;12.20;;;8.60;;
25509;SDS011;13413;52.336;21.200;2022-09-09T01:53:43;11.40;;;8.40;;
25509;SDS011;13413;52.336;21.200;2022-09-09T01:57:05;13.20;;;9.40;;
25509;SDS011;13413;52.336;21.200;2022-09-09T02:00:30;18.70;;;10.20;;
25509;SDS011;13413;52.336;21.200;2022-09-09T02:03:51;15.30;;;9.10;;
25509;SDS011;13413;52.336;21.200;2022-09-09T02:07:23;13.80;;;8.90;;
25509;SDS011;13413;52.336;21.200;2022-09-09T02:10:56;12.50;;;8.60;;
25509;SDS011;13413;52.336;21.200;2022-09-09T02:14:23;13.90;;;8.50;;
25509;SDS011;13413;52.336;21.200;2022-09-09T02:17:46;14.00;;;8.70;;
25509;SDS011;13413;52.336;21.200;2022-09-09T02:21:08;11.30;;;8.90;;
25509;SDS011;13413;52.336;21.200;2022-09-09T02:24:29;13.10;;;8.70;;
25509;SDS011;13413;52.336;21.200;2022-09-09T02:27:54;14.80;;;8.60;;
25509;SDS011;13413;52.336;21.200;2022-09-09T02:31:15;13.20;;;8.00;;
25509;SDS011;13413;52.336;21.200;2022-09-09T02:34:38;12.10;;;8.20;;
25509;SDS011;13413;52.336;21.200;2022-09-09T02:38:01;10.20;;;7.80;;
25509;SDS011;13413;52.336;21.200;2022-09-09T02:41:26;15.60;;;8.60;;
25509;SDS011;13413;52.336;21.200;2022-09-09T02:44:49;10.40;;;7.60;;
25509;SDS011;13413;52.336;21.200;2022-09-09T02:48:10;15.60;;;8.80;;
25509;SDS011;13413;52.336;21.200;2022-09-09T02:55:06;17.00;;;8.70;;
25509;SDS011;13413;52.336;21.200;2022-09-09T02:58:29;11.90;;;8.50;;
25509;SDS011;13413;52.336;21.200;2022-09-09T03:01:49;11.70;;;8.40;;
25509;SDS011;13413;52.336;21.200;2022-09-09T03:05:09;13.10;;;9.30;;
25509;SDS011;13413;52.336;21.200;2022-09-09T03:08:30;13.30;;;8.70;;
25509;SDS011;13413;52.336;21.200;2022-09-09T03:11:50;10.90;;;7.60;;
25509;SDS011;13413;52.336;21.200;2022-09-09T03:15:09;12.50;;;8.30;;
25509;SDS011;13413;52.336;21.200;2022-09-09T03:18:29;15.40;;;9.20;;
25509;SDS011;13413;52.336;21.200;2022-09-09T03:21:48;11.50;;;8.30;;
25509;SDS011;13413;52.336;21.200;2022-09-09T03:25:08;9.50;;;8.40;;
25509;SDS011;13413;52.336;21.200;2022-09-09T03:28:29;10.80;;;8.40;;
25509;SDS011;13413;52.336;21.200;2022-09-09T03:35:08;12.10;;;8.80;;
25509;SDS011;13413;52.336;21.200;2022-09-09T03:38:29;10.80;;;8.20;;
25509;SDS011;13413;52.336;21.200;2022-09-09T03:45:11;10.60;;;8.10;;
25509;SDS011;13413;52.336;21.200;2022-09-09T03:48:31;12.80;;;8.40;;
25509;SDS011;13413;52.336;21.200;2022-09-09T03:51:50;11.20;;;7.90;;
25509;SDS011;13413;52.336;21.200;2022-09-09T03:55:09;10.30;;;7.50;;
25509;SDS011;13413;52.336;21.200;2022-09-09T03:58:28;12.60;;;8.20;;
25509;SDS011;13413;52.336;21.200;2022-09-09T04:01:48;12.60;;;7.90;;
25509;SDS011;13413;52.336;21.200;2022-09-09T04:05:08;10.50;;;8.40;;
25509;SDS011;13413;52.336;21.200;2022-09-09T04:08:28;12.10;;;7.40;;
25509;SDS011;13413;52.336;21.200;2022-09-09T04:11:49;11.40;;;7.20;;
25509;SDS011;13413;52.336;21.200;2022-09-09T04:15:09;11.60;;;7.70;;
25509;SDS011;13413;52.336;21.200;2022-09-09T04:18:29;10.90;;;8.10;;
25509;SDS011;13413;52.336;21.200;2022-09-09T04:21:48;10.00;;;7.70;;
25509;SDS011;13413;52.336;21.200;2022-09-09T04:25:08;10.70;;;7.70;;
25509;SDS011;13413;52.336;21.200;2022-09-09T04:28:27;9.40;;;6.20;;
25509;SDS011;13413;52.336;21.200;2022-09-09T04:31:48;11.30;;;6.80;;
25509;SDS011;13413;52.336;21.200;2022-09-09T04:35:07;10.00;;;7.30;;
25509;SDS011;13413;52.336;21.200;2022-09-09T04:38:27;8.70;;;6.90;;
25509;SDS011;13413;52.336;21.200;2022-09-09T04:41:46;9.50;;;7.00;;
25509;SDS011;13413;52.336;21.200;2022-09-09T04:45:06;12.20;;;6.90;;
25509;SDS011;13413;52.336;21.200;2022-09-09T04:48:26;8.50;;;6.60;;
25509;SDS011;13413;52.336;21.200;2022-09-09T04:51:46;7.30;;;6.20;;
25509;SDS011;13413;52.336;21.200;2022-09-09T04:55:08;9.30;;;6.60;;
25509;SDS011;13413;52.336;21.200;2022-09-09T04:58:29;10.80;;;7.00;;
25509;SDS011;13413;52.336;21.200;2022-09-09T05:01:48;9.10;;;6.50;;
25509;SDS011;13413;52.336;21.200;2022-09-09T05:05:08;8.10;;;6.40;;
25509;SDS011;13413;52.336;21.200;2022-09-09T05:08:27;7.60;;;6.30;;
25509;SDS011;13413;52.336;21.200;2022-09-09T05:11:46;11.50;;;6.10;;
25509;SDS011;13413;52.336;21.200;2022-09-09T05:18:27;8.60;;;6.00;;
25509;SDS011;13413;52.336;21.200;2022-09-09T05:21:47;9.30;;;6.20;;
25509;SDS011;13413;52.336;21.200;2022-09-09T05:25:08;10.60;;;5.50;;
25509;SDS011;13413;52.336;21.200;2022-09-09T05:28:27;7.20;;;5.90;;
25509;SDS011;13413;52.336;21.200;2022-09-09T05:31:47;7.20;;;5.80;;
25509;SDS011;13413;52.336;21.200;2022-09-09T05:35:06;7.00;;;5.40;;
25509;SDS011;13413;52.336;21.200;2022-09-09T05:38:27;8.50;;;6.10;;
25509;SDS011;13413;52.336;21.200;2022-09-09T05:41:47;5.40;;;4.40;;
25509;SDS011;13413;52.336;21.200;2022-09-09T05:45:07;12.50;;;5.80;;
25509;SDS011;13413;52.336;21.200;2022-09-09T05:48:28;5.50;;;5.00;;
25509;SDS011;13413;52.336;21.200;2022-09-09T05:52:06;5.50;;;4.70;;
25509;SDS011;13413;52.336;21.200;2022-09-09T05:55:26;6.10;;;4.90;;
25509;SDS011;13413;52.336;21.200;2022-09-09T05:58:45;5.90;;;4.60;;
25509;SDS011;13413;52.336;21.200;2022-09-09T06:02:07;6.80;;;4.80;;
25509;SDS011;13413;52.336;21.200;2022-09-09T06:05:26;6.40;;;4.60;;
25509;SDS011;13413;52.336;21.200;2022-09-09T06:08:45;6.30;;;5.20;;
25509;SDS011;13413;52.336;21.200;2022-09-09T06:12:06;5.90;;;4.80;;
25509;SDS011;13413;52.336;21.200;2022-09-09T06:15:26;8.50;;;4.70;;
25509;SDS011;13413;52.336;21.200;2022-09-09T06:18:46;5.00;;;4.40;;
25509;SDS011;13413;52.336;21.200;2022-09-09T06:22:05;7.70;;;4.90;;
25509;SDS011;13413;52.336;21.200;2022-09-09T06:25:25;9.40;;;5.10;;
25509;SDS011;13413;52.336;21.200;2022-09-09T06:28:44;6.40;;;5.00;;
25509;SDS011;13413;52.336;21.200;2022-09-09T06:32:04;6.40;;;5.00;;
25509;SDS011;13413;52.336;21.200;2022-09-09T06:35:24;6.60;;;4.90;;
25509;SDS011;13413;52.336;21.200;2022-09-09T06:38:43;6.70;;;5.50;;
25509;SDS011;13413;52.336;21.200;2022-09-09T06:42:04;6.60;;;5.40;;
25509;SDS011;13413;52.336;21.200;2022-09-09T06:45:23;6.00;;;5.10;;
25509;SDS011;13413;52.336;21.200;2022-09-09T06:48:43;8.50;;;5.80;;
25509;SDS011;13413;52.336;21.200;2022-09-09T06:52:03;6.30;;;5.20;;
25509;SDS011;13413;52.336;21.200;2022-09-09T06:58:56;6.50;;;5.70;;
25509;SDS011;13413;52.336;21.200;2022-09-09T07:02:17;6.80;;;5.80;;
25509;SDS011;13413;52.336;21.200;2022-09-09T07:05:36;7.50;;;6.20;;
25509;SDS011;13413;52.336;21.200;2022-09-09T07:08:56;8.10;;;6.50;;
25509;SDS011;13413;52.336;21.200;2022-09-09T07:12:17;8.30;;;6.70;;
25509;SDS011;13413;52.336;21.200;2022-09-09T07:15:37;8.10;;;7.30;;
25509;SDS011;13413;52.336;21.200;2022-09-09T07:18:57;11.10;;;7.00;;
25509;SDS011;13413;52.336;21.200;2022-09-09T07:22:16;8.00;;;6.50;;
25509;SDS011;13413;52.336;21.200;2022-09-09T07:25:35;8.80;;;6.40;;
25509;SDS011;13413;52.336;21.200;2022-09-09T07:28:54;8.70;;;7.80;;
25509;SDS011;13413;52.336;21.200;2022-09-09T07:32:14;10.10;;;7.90;;
25509;SDS011;13413;52.336;21.200;2022-09-09T07:35:34;12.00;;;8.00;;
25509;SDS011;13413;52.336;21.200;2022-09-09T07:38:54;10.60;;;8.10;;
25509;SDS011;13413;52.336;21.200;2022-09-09T07:42:16;10.60;;;7.70;;
25509;SDS011;13413;52.336;21.200;2022-09-09T07:45:35;10.10;;;8.10;;
25509;SDS011;13413;52.336;21.200;2022-09-09T07:48:56;9.60;;;8.20;;
25509;SDS011;13413;52.336;21.200;2022-09-09T07:52:16;10.50;;;8.70;;
25509;SDS011;13413;52.336;21.200;2022-09-09T07:55:35;9.10;;;8.10;;
25509;SDS011;13413;52.336;21.200;2022-09-09T07:58:55;8.50;;;7.60;;
25509;SDS011;13413;52.336;21.200;2022-09-09T08:02:16;10.90;;;8.50;;
25509;SDS011;13413;52.336;21.200;2022-09-09T08:05:39;9.00;;;7.50;;
25509;SDS011;13413;52.336;21.200;2022-09-09T08:08:59;10.90;;;8.70;;
25509;SDS011;13413;52.336;21.200;2022-09-09T08:12:20;11.10;;;9.00;;
25509;SDS011;13413;52.336;21.200;2022-09-09T08:15:40;11.20;;;8.60;;
25509;SDS011;13413;52.336;21.200;2022-09-09T08:18:59;12.60;;;9.20;;
25509;SDS011;13413;52.336;21.200;2022-09-09T08:22:20;13.00;;;9.20;;
25509;SDS011;13413;52.336;21.200;2022-09-09T08:29:12;10.70;;;8.80;;
25509;SDS011;13413;52.336;21.200;2022-09-09T08:32:32;10.30;;;8.60;;
25509;SDS011;13413;52.336;21.200;2022-09-09T08:35:51;12.60;;;9.00;;
25509;SDS011;13413;52.336;21.200;2022-09-09T08:39:11;10.60;;;8.60;;
25509;SDS011;13413;52.336;21.200;2022-09-09T08:42:35;13.60;;;9.10;;
25509;SDS011;13413;52.336;21.200;2022-09-09T08:46:00;11.30;;;9.10;;
25509;SDS011;13413;52.336;21.200;2022-09-09T08:49:38;12.90;;;9.70;;
25509;SDS011;13413;52.336;21.200;2022-09-09T08:53:11;13.10;;;10.90;;
25509;SDS011;13413;52.336;21.200;2022-09-09T08:56:38;11.90;;;10.10;;
25509;SDS011;13413;52.336;21.200;2022-09-09T08:59:57;13.10;;;9.30;;
25509;SDS011;13413;52.336;21.200;2022-09-09T09:03:19;13.20;;;10.00;;
25509;SDS011;13413;52.336;21.200;2022-09-09T09:06:48;12.00;;;10.20;;
25509;SDS011;13413;52.336;21.200;2022-09-09T09:10:15;12.90;;;10.00;;
25509;SDS011;13413;52.336;21.200;2022-09-09T09:13:51;14.00;;;11.20;;
25509;SDS011;13413;52.336;21.200;2022-09-09T09:17:14;15.20;;;11.30;;
25509;SDS011;13413;52.336;21.200;2022-09-09T09:20:36;14.30;;;11.40;;
25509;SDS011;13413;52.336;21.200;2022-09-09T09:24:05;13.60;;;10.80;;
25509;SDS011;13413;52.336;21.200;2022-09-09T09:27:34;14.90;;;11.50;;
25509;SDS011;13413;52.336;21.200;2022-09-09T09:30:58;15.30;;;11.80;;
25509;SDS011;13413;52.336;21.200;2022-09-09T09:34:21;18.90;;;12.60;;
25509;SDS011;13413;52.336;21.200;2022-09-09T09:37:41;18.50;;;12.10;;
25509;SDS011;13413;52.336;21.200;2022-09-09T09:41:01;16.10;;;12.80;;
25509;SDS011;13413;52.336;21.200;2022-09-09T09:44:23;21.80;;;14.30;;
25509;SDS011;13413;52.336;21.200;2022-09-09T09:47:45;17.70;;;13.30;;
25509;SDS011;13413;52.336;21.200;2022-09-09T09:51:15;19.60;;;13.40;;
25509;SDS011;13413;52.336;21.200;2022-09-09T09:54:41;17.40;;;13.10;;
25509;SDS011;13413;52.336;21.200;2022-09-09T09:58:02;20.90;;;14.20;;
25509;SDS011;13413;52.336;21.200;2022-09-09T10:01:24;21.30;;;14.50;;
25509;SDS011;13413;52.336;21.200;2022-09-09T10:04:46;19.30;;;14.70;;
25509;SDS011;13413;52.336;21.200;2022-09-09T10:08:09;18.50;;;15.40;;
25509;SDS011;13413;52.336;21.200;2022-09-09T10:11:33;19.60;;;14.80;;
25509;SDS011;13413;52.336;21.200;2022-09-09T10:15:03;26.10;;;16.80;;
25509;SDS011;13413;52.336;21.200;2022-09-09T10:18:47;24.40;;;16.70;;
25509;SDS011;13413;52.336;21.200;2022-09-09T10:22:32;23.90;;;16.40;;
25509;SDS011;13413;52.336;21.200;2022-09-09T10:26:03;26.80;;;16.60;;
25509;SDS011;13413;52.336;21.200;2022-09-09T10:29:38;22.40;;;16.40;;
25509;SDS011;13413;52.336;21.200;2022-09-09T10:33:09;29.40;;;18.40;;
25509;SDS011;13413;52.336;21.200;2022-09-09T10:36:34;30.30;;;19.00;;
25509;SDS011;13413;52.336;21.200;2022-09-09T10:40:00;30.10;;;18.20;;
25509;SDS011;13413;52.336;21.200;2022-09-09T10:43:36;29.50;;;17.80;;
25509;SDS011;13413;52.336;21.200;2022-09-09T10:51:13;27.40;;;17.90;;
25509;SDS011;13413;52.336;21.200;2022-09-09T10:54:46;23.10;;;17.50;;
25509;SDS011;13413;52.336;21.200;2022-09-09T10:58:17;30.80;;;19.50;;
25509;SDS011;13413;52.336;21.200;2022-09-09T11:01:43;31.00;;;20.10;;
25509;SDS011;13413;52.336;21.200;2022-09-09T11:05:08;32.20;;;19.60;;
25509;SDS011;13413;52.336;21.200;2022-09-09T11:08:37;31.60;;;18.90;;
25509;SDS011;13413;52.336;21.200;2022-09-09T11:11:58;27.50;;;19.10;;
25509;SDS011;13413;52.336;21.200;2022-09-09T11:15:21;32.40;;;21.40;;
25509;SDS011;13413;52.336;21.200;2022-09-09T11:18:47;30.60;;;19.70;;
25509;SDS011;13413;52.336;21.200;2022-09-09T11:22:08;28.40;;;19.80;;
25509;SDS011;13413;52.336;21.200;2022-09-09T11:25:40;31.30;;;20.20;;
25509;SDS011;13413;52.336;21.200;2022-09-09T11:32:58;29.60;;;21.30;;
25509;SDS011;13413;52.336;21.200;2022-09-09T11:36:29;26.40;;;19.40;;
25509;SDS011;13413;52.336;21.200;2022-09-09T11:40:14;26.70;;;19.40;;
25509;SDS011;13413;52.336;21.200;2022-09-09T11:43:39;30.20;;;19.80;;
25509;SDS011;13413;52.336;21.200;2022-09-09T11:47:00;27.50;;;18.90;;
25509;SDS011;13413;52.336;21.200;2022-09-09T11:50:32;27.90;;;19.20;;
25509;SDS011;13413;52.336;21.200;2022-09-09T11:53:54;32.90;;;20.10;;
25509;SDS011;13413;52.336;21.200;2022-09-09T11:57:18;31.80;;;19.60;;
25509;SDS011;13413;52.336;21.200;2022-09-09T12:00:44;31.60;;;20.40;;
25509;SDS011;13413;52.336;21.200;2022-09-09T12:04:18;35.00;;;22.10;;
25509;SDS011;13413;52.336;21.200;2022-09-09T12:07:51;27.20;;;20.20;;
25509;SDS011;13413;52.336;21.200;2022-09-09T12:11:22;30.30;;;20.50;;
25509;SDS011;13413;52.336;21.200;2022-09-09T12:14:55;29.90;;;20.70;;
25509;SDS011;13413;52.336;21.200;2022-09-09T12:18:21;30.20;;;20.10;;
25509;SDS011;13413;52.336;21.200;2022-09-09T12:21:44;30.90;;;21.10;;
25509;SDS011;13413;52.336;21.200;2022-09-09T12:25:14;29.80;;;20.90;;
25509;SDS011;13413;52.336;21.200;2022-09-09T12:28:42;38.60;;;22.50;;
25509;SDS011;13413;52.336;21.200;2022-09-09T12:32:08;29.40;;;20.10;;
25509;SDS011;13413;52.336;21.200;2022-09-09T12:35:29;33.30;;;22.60;;
25509;SDS011;13413;52.336;21.200;2022-09-09T12:38:50;28.40;;;19.80;;
25509;SDS011;13413;52.336;21.200;2022-09-09T12:42:17;32.40;;;21.00;;
25509;SDS011;13413;52.336;21.200;2022-09-09T12:48:57;25.90;;;20.70;;
25509;SDS011;13413;52.336;21.200;2022-09-09T12:52:19;30.10;;;21.00;;
25509;SDS011;13413;52.336;21.200;2022-09-09T12:55:49;35.20;;;22.00;;
25509;SDS011;13413;52.336;21.200;2022-09-09T12:59:21;32.60;;;20.00;;
25509;SDS011;13413;52.336;21.200;2022-09-09T13:02:47;28.40;;;19.40;;
25509;SDS011;13413;52.336;21.200;2022-09-09T13:06:12;30.70;;;21.90;;
25509;SDS011;13413;52.336;21.200;2022-09-09T13:09:37;32.30;;;22.00;;
25509;SDS011;13413;52.336;21.200;2022-09-09T13:12:59;37.00;;;21.30;;
25509;SDS011;13413;52.336;21.200;2022-09-09T13:16:21;29.80;;;21.20;;
25509;SDS011;13413;52.336;21.200;2022-09-09T13:19:44;33.50;;;21.40;;
25509;SDS011;13413;52.336;21.200;2022-09-09T13:23:04;35.50;;;22.00;;
25509;SDS011;13413;52.336;21.200;2022-09-09T13:26:29;28.60;;;22.30;;
25509;SDS011;13413;52.336;21.200;2022-09-09T13:29:52;32.20;;;22.50;;
25509;SDS011;13413;52.336;21.200;2022-09-09T13:33:22;30.90;;;21.30;;
25509;SDS011;13413;52.336;21.200;2022-09-09T13:36:47;30.00;;;20.40;;
25509;SDS011;13413;52.336;21.200;2022-09-09T13:40:14;28.30;;;21.00;;
25509;SDS011;13413;52.336;21.200;2022-09-09T13:43:42;30.60;;;21.20;;
25509;SDS011;13413;52.336;21.200;2022-09-09T13:47:04;30.90;;;21.60;;
25509;SDS011;13413;52.336;21.200;2022-09-09T13:50:36;28.60;;;19.60;;
25509;SDS011;13413;52.336;21.200;2022-09-09T13:53:56;26.30;;;20.50;;
25509;SDS011;13413;52.336;21.200;2022-09-09T13:57:16;30.10;;;23.00;;
25509;SDS011;13413;52.336;21.200;2022-09-09T14:03:55;28.00;;;21.30;;
25509;SDS011;13413;52.336;21.200;2022-09-09T14:07:16;26.40;;;19.60;;
25509;SDS011;13413;52.336;21.200;2022-09-09T14:10:35;29.20;;;20.50;;
25509;SDS011;13413;52.336;21.200;2022-09-09T14:13:57;29.00;;;21.10;;
25509;SDS011;13413;52.336;21.200;2022-09-09T14:17:17;25.70;;;19.60;;
25509;SDS011;13413;52.336;21.200;2022-09-09T14:20:35;28.40;;;20.70;;
25509;SDS011;13413;52.336;21.200;2022-09-09T14:23:55;30.20;;;20.70;;
25509;SDS011;13413;52.336;21.200;2022-09-09T14:27:14;28.70;;;20.60;;
25509;SDS011;13413;52.336;21.200;2022-09-09T14:30:34;29.40;;;20.70;;
25509;SDS011;13413;52.336;21.200;2022-09-09T14:33:53;27.20;;;19.90;;
25509;SDS011;13413;52.336;21.200;2022-09-09T14:37:13;25.60;;;20.20;;
25509;SDS011;13413;52.336;21.200;2022-09-09T14:40:33;27.50;;;20.00;;
25509;SDS011;13413;52.336;21.200;2022-09-09T14:43:53;33.80;;;21.70;;
25509;SDS011;13413;52.336;21.200;2022-09-09T14:47:12;33.50;;;22.40;;
25509;SDS011;13413;52.336;21.200;2022-09-09T14:50:32;27.70;;;20.20;;
25509;SDS011;13413;52.336;21.200;2022-09-09T14:53:52;32.20;;;22.70;;
25509;SDS011;13413;52.336;21.200;2022-09-09T14:57:12;42.00;;;24.20;;
25509;SDS011;13413;52.336;21.200;2022-09-09T15:00:32;31.30;;;21.80;;
25509;SDS011;13413;52.336;21.200;2022-09-09T15:03:51;34.30;;;23.10;;
25509;SDS011;13413;52.336;21.200;2022-09-09T15:07:13;34.40;;;22.90;;
25509;SDS011;13413;52.336;21.200;2022-09-09T15:10:32;29.80;;;22.90;;
25509;SDS011;13413;52.336;21.200;2022-09-09T15:13:51;28.30;;;22.40;;
25509;SDS011;13413;52.336;21.200;2022-09-09T15:17:12;32.60;;;22.70;;
25509;SDS011;13413;52.336;21.200;2022-09-09T15:20:32;33.80;;;24.50;;
25509;SDS011;13413;52.336;21.200;2022-09-09T15:23:55;32.90;;;23.70;;
25509;SDS011;13413;52.336;21.200;2022-09-09T15:27:16;33.10;;;23.60;;
25509;SDS011;13413;52.336;21.200;2022-09-09T15:30:36;36.40;;;23.70;;
25509;SDS011;13413;52.336;21.200;2022-09-09T15:33:56;30.10;;;22.50;;
25509;SDS011;13413;52.336;21.200;2022-09-09T15:37:17;34.00;;;23.90;;
25509;SDS011;13413;52.336;21.200;2022-09-09T15:40:37;37.70;;;24.70;;
25509;SDS011;13413;52.336;21.200;2022-09-09T15:43:56;33.50;;;23.20;;
25509;SDS011;13413;52.336;21.200;2022-09-09T15:47:16;33.60;;;23.60;;
25509;SDS011;13413;52.336;21.200;2022-09-09T15:50:35;36.60;;;23.00;;
25509;SDS011;13413;52.336;21.200;2022-09-09T15:53:57;37.20;;;23.40;;
25509;SDS011;13413;52.336;21.200;2022-09-09T15:57:17;34.80;;;23.20;;
25509;SDS011;13413;52.336;21.200;2022-09-09T16:00:36;38.70;;;23.10;;
25509;SDS011;13413;52.336;21.200;2022-09-09T16:03:56;31.60;;;21.70;;
25509;SDS011;13413;52.336;21.200;2022-09-09T16:07:29;38.90;;;23.00;;
25509;SDS011;13413;52.336;21.200;2022-09-09T16:10:48;33.10;;;23.40;;
25509;SDS011;13413;52.336;21.200;2022-09-09T16:14:07;35.80;;;22.80;;
25509;SDS011;13413;52.336;21.200;2022-09-09T16:17:27;32.40;;;22.60;;
25509;SDS011;13413;52.336;21.200;2022-09-09T16:20:54;35.90;;;22.50;;
25509;SDS011;13413;52.336;21.200;2022-09-09T16:24:13;32.20;;;21.60;;
25509;SDS011;13413;52.336;21.200;2022-09-09T16:27:34;33.90;;;23.30;;
25509;SDS011;13413;52.336;21.200;2022-09-09T16:30:54;34.10;;;21.70;;
25509;SDS011;13413;52.336;21.200;2022-09-09T16:34:13;37.30;;;22.10;;
25509;SDS011;13413;52.336;21.200;2022-09-09T16:37:34;36.10;;;22.00;;
25509;SDS011;13413;52.336;21.200;2022-09-09T16:40:53;31.90;;;21.10;;
25509;SDS011;13413;52.336;21.200;2022-09-09T16:44:17;35.20;;;22.00;;
25509;SDS011;13413;52.336;21.200;2022-09-09T16:47:37;34.60;;;23.30;;
25509;SDS011;13413;52.336;21.200;2022-09-09T16:51:02;32.60;;;22.40;;
25509;SDS011;13413;52.336;21.200;2022-09-09T16:54:22;32.40;;;21.80;;
25509;SDS011;13413;52.336;21.200;2022-09-09T16:57:42;29.90;;;18.40;;
25509;SDS011;13413;52.336;21.200;2022-09-09T17:01:02;28.70;;;19.20;;
25509;SDS011;13413;52.336;21.200;2022-09-09T17:04:25;25.50;;;17.50;;
25509;SDS011;13413;52.336;21.200;2022-09-09T17:07:44;25.50;;;18.80;;
25509;SDS011;13413;52.336;21.200;2022-09-09T17:11:04;33.70;;;19.10;;
25509;SDS011;13413;52.336;21.200;2022-09-09T17:14:31;24.30;;;18.00;;
25509;SDS011;13413;52.336;21.200;2022-09-09T17:17:50;26.90;;;19.00;;
25509;SDS011;13413;52.336;21.200;2022-09-09T17:21:09;24.40;;;17.70;;
25509;SDS011;13413;52.336;21.200;2022-09-09T17:24:32;23.30;;;17.70;;
25509;SDS011;13413;52.336;21.200;2022-09-09T17:27:53;31.60;;;18.40;;
25509;SDS011;13413;52.336;21.200;2022-09-09T17:34:31;26.20;;;17.70;;
25509;SDS011;13413;52.336;21.200;2022-09-09T17:37:52;25.10;;;18.70;;
25509;SDS011;13413;52.336;21.200;2022-09-09T17:41:13;23.70;;;17.10;;
25509;SDS011;13413;52.336;21.200;2022-09-09T17:44:50;21.30;;;17.50;;
25509;SDS011;13413;52.336;21.200;2022-09-09T17:48:09;22.40;;;16.50;;
25509;SDS011;13413;52.336;21.200;2022-09-09T17:51:28;25.40;;;18.20;;
25509;SDS011;13413;52.336;21.200;2022-09-09T17:54:49;23.30;;;17.50;;
25509;SDS011;13413;52.336;21.200;2022-09-09T17:58:08;21.50;;;18.30;;
25509;SDS011;13413;52.336;21.200;2022-09-09T18:01:28;24.00;;;18.50;;
25509;SDS011;13413;52.336;21.200;2022-09-09T18:04:49;24.00;;;17.80;;
25509;SDS011;13413;52.336;21.200;2022-09-09T18:08:07;21.90;;;17.10;;
25509;SDS011;13413;52.336;21.200;2022-09-09T18:11:27;18.30;;;16.40;;
25509;SDS011;13413;52.336;21.200;2022-09-09T18:14:51;19.60;;;15.90;;
25509;SDS011;13413;52.336;21.200;2022-09-09T18:18:12;20.40;;;16.40;;
25509;SDS011;13413;52.336;21.200;2022-09-09T18:21:31;20.10;;;15.50;;
25509;SDS011;13413;52.336;21.200;2022-09-09T18:24:52;24.00;;;17.30;;
25509;SDS011;13413;52.336;21.200;2022-09-09T18:28:13;21.00;;;16.20;;
25509;SDS011;13413;52.336;21.200;2022-09-09T18:31:32;22.00;;;16.50;;
25509;SDS011;13413;52.336;21.200;2022-09-09T18:34:53;22.60;;;16.50;;
25509;SDS011;13413;52.336;21.200;2022-09-09T18:38:14;20.70;;;16.50;;
25509;SDS011;13413;52.336;21.200;2022-09-09T18:41:33;23.30;;;17.70;;
25509;SDS011;13413;52.336;21.200;2022-09-09T18:44:54;21.80;;;17.50;;
25509;SDS011;13413;52.336;21.200;2022-09-09T18:48:13;22.50;;;17.10;;
25509;SDS011;13413;52.336;21.200;2022-09-09T18:51:34;21.00;;;16.80;;
25509;SDS011;13413;52.336;21.200;2022-09-09T18:54:56;19.10;;;16.50;;
25509;SDS011;13413;52.336;21.200;2022-09-09T18:58:18;21.50;;;17.00;;
25509;SDS011;13413;52.336;21.200;2022-09-09T19:01:39;20.20;;;16.20;;
25509;SDS011;13413;52.336;21.200;2022-09-09T19:04:59;19.60;;;16.20;;
25509;SDS011;13413;52.336;21.200;2022-09-09T19:08:20;21.70;;;16.70;;
25509;SDS011;13413;52.336;21.200;2022-09-09T19:11:40;22.10;;;16.80;;
25509;SDS011;13413;52.336;21.200;2022-09-09T19:15:00;21.60;;;17.00;;
25509;SDS011;13413;52.336;21.200;2022-09-09T19:18:19;23.70;;;16.90;;
25509;SDS011;13413;52.336;21.200;2022-09-09T19:21:39;19.20;;;15.80;;
25509;SDS011;13413;52.336;21.200;2022-09-09T19:25:00;21.70;;;16.30;;
25509;SDS011;13413;52.336;21.200;2022-09-09T19:28:21;20.40;;;16.40;;
25509;SDS011;13413;52.336;21.200;2022-09-09T19:31:42;24.30;;;16.10;;
25509;SDS011;13413;52.336;21.200;2022-09-09T19:35:07;19.40;;;15.60;;
25509;SDS011;13413;52.336;21.200;2022-09-09T19:38:27;19.40;;;15.40;;
25509;SDS011;13413;52.336;21.200;2022-09-09T19:41:47;20.80;;;15.00;;
25509;SDS011;13413;52.336;21.200;2022-09-09T19:45:09;16.60;;;14.20;;
25509;SDS011;13413;52.336;21.200;2022-09-09T19:48:30;21.10;;;13.90;;
25509;SDS011;13413;52.336;21.200;2022-09-09T19:51:50;20.20;;;14.40;;
25509;SDS011;13413;52.336;21.200;2022-09-09T19:55:10;20.30;;;14.60;;
25509;SDS011;13413;52.336;21.200;2022-09-09T19:58:32;16.80;;;14.20;;
25509;SDS011;13413;52.336;21.200;2022-09-09T20:01:52;15.70;;;13.60;;
25509;SDS011;13413;52.336;21.200;2022-09-09T20:05:12;18.30;;;13.70;;
25509;SDS011;13413;52.336;21.200;2022-09-09T20:08:31;18.00;;;13.70;;
25509;SDS011;13413;52.336;21.200;2022-09-09T20:11:51;19.80;;;13.10;;
25509;SDS011;13413;52.336;21.200;2022-09-09T20:15:10;21.10;;;14.00;;
25509;SDS011;13413;52.336;21.200;2022-09-09T20:18:32;19.30;;;13.50;;